Time;durP1;ratioP1;P1;durP2;ratioP2;P2;SDS_P1;SDS_P2;PMS_P1;PMS_P2;Temp;Humidity;BMP_temperature;BMP_pressure;BME280_temperature;BME280_humidity;BME280_pressure;Samples;Min_cycle;Max_cycle;Signal;HPM_P1;HPM_P2
2023/09/01 00:00:24;;;;;;;8.15;3.40;;;;;;;20.34;57.67;95454.88;5015671;28;20037;-85
2023/09/01 00:02:51;;;;;;;8.13;3.22;;;;;;;20.19;58.36;95433.91;5034044;28;20171;-85
2023/09/01 00:05:16;;;;;;;8.45;3.78;;;;;;;20.13;58.20;95443.28;5032107;28;20033;-85
2023/09/01 00:07:42;;;;;;;10.93;3.65;;;;;;;20.00;57.95;95428.94;5037225;28;20038;-85
2023/09/01 00:10:07;;;;;;;8.70;3.83;;;;;;;20.14;57.90;95451.00;5037243;28;20068;-86
2023/09/01 00:12:33;;;;;;;7.97;3.88;;;;;;;20.10;58.03;95447.41;5019400;28;20101;-85
2023/09/01 00:14:58;;;;;;;7.40;3.67;;;;;;;19.81;58.09;95415.16;5019526;28;20041;-85
2023/09/01 00:17:23;;;;;;;9.55;3.88;;;;;;;19.98;58.03;95442.75;5018619;28;20037;-85
2023/09/01 00:19:49;;;;;;;13.23;5.18;;;;;;;19.86;57.99;95423.03;5036430;28;20060;-85
2023/09/01 00:22:14;;;;;;;9.27;3.72;;;;;;;20.16;58.18;95464.94;5036368;28;20103;-85
2023/09/01 00:24:40;;;;;;;8.63;4.07;;;;;;;19.70;57.80;95387.03;5018821;28;20488;-86
2023/09/01 00:27:05;;;;;;;12.35;4.53;;;;;;;20.02;57.87;95448.25;5037590;28;20044;-86
2023/09/01 00:29:33;;;;;;;8.18;3.75;;;;;;;20.05;57.67;95458.38;5036778;28;20041;-86
2023/09/01 00:31:59;;;;;;;10.43;4.28;;;;;;;19.93;57.92;95469.84;5018319;28;20120;-85
2023/09/01 00:34:25;;;;;;;7.63;4.03;;;;;;;19.68;58.12;95435.81;5018780;28;20021;-85
2023/09/01 00:36:51;;;;;;;7.70;4.10;;;;;;;19.23;57.89;95344.84;5036701;28;20116;-86
2023/09/01 00:39:16;;;;;;;10.50;4.35;;;;;;;19.91;57.94;95463.97;5019116;28;20033;-85
2023/09/01 00:41:42;;;;;;;8.35;3.67;;;;;;;19.83;58.24;95455.97;5035967;28;20033;-85
2023/09/01 00:44:08;;;;;;;8.60;3.70;;;;;;;19.87;58.33;95462.28;5037039;28;20061;-86
2023/09/01 00:46:34;;;;;;;5.57;3.25;;;;;;;19.41;58.62;95417.38;5035777;28;20037;-85
2023/09/01 00:49:00;;;;;;;7.45;4.00;;;;;;;19.54;58.59;95427.13;5037570;28;20037;-85
2023/09/01 00:51:26;;;;;;;8.13;3.80;;;;;;;19.72;59.03;95466.31;5018903;28;20034;-86
2023/09/01 00:53:52;;;;;;;11.45;4.30;;;;;;;19.60;59.11;95452.78;5036746;28;20037;-85
2023/09/01 00:56:19;;;;;;;11.02;4.65;;;;;;;19.66;59.13;95456.84;5018712;28;20033;-86
2023/09/01 00:58:44;;;;;;;9.30;3.67;;;;;;;19.36;59.66;95434.47;5036244;28;20036;-85
2023/09/01 01:01:10;;;;;;;9.15;3.83;;;;;;;19.41;59.67;95425.44;5036737;28;20029;-85
2023/09/01 01:03:36;;;;;;;8.52;4.10;;;;;;;19.55;59.73;95458.31;5018413;28;20452;-85
2023/09/01 01:06:25;;;;;;;8.95;3.50;;;;;;;19.62;59.64;95462.06;5019206;28;20040;-86
2023/09/01 01:09:23;;;;;;;9.63;3.70;;;;;;;19.64;59.55;95470.63;5018776;28;20441;-79
2023/09/01 01:12:05;;;;;;;12.52;4.22;;;;;;;19.56;59.85;95466.06;5002084;28;20045;-79
2023/09/01 01:14:48;;;;;;;12.18;4.40;;;;;;;19.65;59.61;95466.03;5036797;28;20037;-79
2023/09/01 01:17:19;;;;;;;7.72;3.65;;;;;;;19.16;59.18;95400.22;5035567;28;20492;-79
2023/09/01 01:19:53;;;;;;;8.27;3.67;;;;;;;19.56;59.43;95471.44;5018624;28;20041;-79
2023/09/01 01:22:34;;;;;;;7.15;3.33;;;;;;;19.63;58.91;95470.94;5018424;28;20096;-79
2023/09/01 01:24:59;;;;;;;8.32;3.92;;;;;;;19.67;59.21;95465.72;5035697;28;20037;-79
2023/09/01 01:27:25;;;;;;;10.02;3.42;;;;;;;19.53;58.76;95464.00;5034989;28;20049;-80
2023/09/01 01:29:50;;;;;;;8.95;3.63;;;;;;;19.18;58.86;95423.00;5017865;28;20038;-79
2023/09/01 01:32:16;;;;;;;8.60;3.88;;;;;;;19.22;58.81;95418.53;5034102;28;20040;-79
2023/09/01 01:35:00;;;;;;;9.88;3.30;;;;;;;19.32;58.56;95441.59;5035485;28;20033;-79
2023/09/01 01:37:41;;;;;;;11.00;4.35;;;;;;;19.43;58.61;95458.19;5035750;28;20052;-79
2023/09/01 01:40:08;;;;;;;6.93;3.40;;;;;;;19.15;58.94;95428.22;5027603;28;20039;-79
2023/09/01 01:42:36;;;;;;;9.57;3.85;;;;;;;19.00;58.93;95412.59;5017028;28;20491;-79
2023/09/01 01:45:04;;;;;;;8.80;3.60;;;;;;;19.37;58.82;95444.13;5035399;28;20451;-79
2023/09/01 01:47:31;;;;;;;10.95;3.70;;;;;;;19.19;58.85;95427.25;5035001;28;20032;-79
2023/09/01 01:49:56;;;;;;;9.55;3.33;;;;;;;19.46;58.84;95454.84;5035139;28;20041;-79
2023/09/01 01:52:22;;;;;;;11.10;4.03;;;;;;;19.21;58.73;95419.66;5034760;28;20077;-79
2023/09/01 01:54:47;;;;;;;8.13;3.70;;;;;;;19.16;58.83;95427.91;5035330;28;20037;-79
2023/09/01 01:57:14;;;;;;;8.93;3.55;;;;;;;19.05;59.19;95421.31;5034858;28;20026;-79
2023/09/01 01:59:41;;;;;;;9.43;4.20;;;;;;;19.14;59.01;95426.66;5033282;28;20033;-79
2023/09/01 02:02:06;;;;;;;10.18;3.75;;;;;;;19.16;59.30;95427.91;5034580;28;20030;-79
2023/09/01 02:04:32;;;;;;;11.55;3.53;;;;;;;19.27;59.25;95444.47;5034265;28;20056;-79
2023/09/01 02:06:58;;;;;;;7.30;3.58;;;;;;;19.17;58.89;95426.78;5035184;28;20037;-79
2023/09/01 02:09:24;;;;;;;9.52;3.47;;;;;;;19.35;59.01;95448.25;5016793;28;20034;-79
2023/09/01 02:11:50;;;;;;;11.15;3.60;;;;;;;19.41;59.03;95449.66;5035627;28;20566;-79
2023/09/01 02:14:16;;;;;;;8.45;3.63;;;;;;;19.24;58.50;95421.69;5016789;28;20037;-79
2023/09/01 02:16:41;;;;;;;10.18;3.75;;;;;;;19.00;58.81;95410.72;5033578;28;20389;-79
2023/09/01 02:19:09;;;;;;;6.80;3.42;;;;;;;19.03;58.91;95420.03;5016945;28;20050;-86
2023/09/01 02:21:34;;;;;;;9.07;3.25;;;;;;;19.23;58.40;95451.59;5033641;28;20069;-86
2023/09/01 02:24:00;;;;;;;8.80;3.35;;;;;;;19.09;58.17;95427.59;5035217;28;20443;-86
2023/09/01 02:26:25;;;;;;;9.40;3.75;;;;;;;19.18;58.30;95473.28;5016404;28;20034;-85
2023/09/01 02:28:51;;;;;;;14.15;3.30;;;;;;;19.20;58.27;95463.00;5034129;28;20041;-85
2023/09/01 02:31:18;;;;;;;11.88;4.13;;;;;;;18.45;58.32;95356.94;5016942;28;20061;-86
2023/09/01 02:33:43;;;;;;;9.30;4.25;;;;;;;18.93;58.03;95425.75;5034251;28;20029;-86
2023/09/01 02:36:24;;;;;;;7.55;3.53;;;;;;;19.16;58.23;95464.75;5034000;28;20033;-85
2023/09/01 02:38:50;;;;;;;9.80;3.60;;;;;;;19.07;58.25;95467.44;5016557;28;20034;-86
2023/09/01 02:41:15;;;;;;;7.95;3.65;;;;;;;18.70;58.49;95406.34;5016711;28;20034;-86
2023/09/01 02:43:41;;;;;;;8.88;3.47;;;;;;;18.95;58.41;95469.22;5033804;28;20097;-85
2023/09/01 02:46:06;;;;;;;9.13;3.10;;;;;;;18.89;58.59;95464.03;5015590;28;20515;-85
2023/09/01 02:48:32;;;;;;;10.27;4.65;;;;;;;18.89;59.02;95458.66;5010436;28;20046;-86
2023/09/01 02:50:58;;;;;;;9.18;3.50;;;;;;;18.61;59.10;95397.53;5014943;28;20102;-86
2023/09/01 02:53:24;;;;;;;8.63;4.38;;;;;;;18.98;59.15;95463.22;4996934;28;20026;-86
2023/09/01 02:55:50;;;;;;;10.90;4.00;;;;;;;18.63;58.79;95396.09;5014477;28;20068;-85
2023/09/01 02:58:15;;;;;;;13.77;4.03;;;;;;;18.62;58.67;95389.13;4996732;28;20092;-86
2023/09/01 03:00:40;;;;;;;16.17;4.35;;;;;;;18.88;59.11;95448.22;4996384;28;20033;-85
2023/09/01 03:03:06;;;;;;;7.18;3.30;;;;;;;18.87;59.20;95454.69;4997183;28;20116;-86
2023/09/01 03:05:31;;;;;;;10.68;4.00;;;;;;;18.68;58.93;95420.13;4996604;28;20033;-85
2023/09/01 03:07:58;;;;;;;14.82;3.65;;;;;;;18.91;58.73;95446.78;4996800;28;20481;-86
2023/09/01 03:10:23;;;;;;;12.88;4.10;;;;;;;18.96;58.95;95465.44;4996607;28;20033;-86
2023/09/01 03:12:49;;;;;;;13.57;4.45;;;;;;;18.81;59.14;95466.72;5013535;28;20097;-85
2023/09/01 03:15:15;;;;;;;9.57;4.35;;;;;;;18.71;59.74;95454.41;5014943;28;20112;-85
2023/09/01 03:17:40;;;;;;;7.80;3.58;;;;;;;18.50;59.91;95432.75;4995986;28;20082;-86
2023/09/01 03:20:09;;;;;;;9.77;3.50;;;;;;;18.36;59.81;95412.53;5014408;28;20045;-85
2023/09/01 03:22:35;;;;;;;12.23;4.00;;;;;;;18.54;60.09;95445.53;5016365;28;20500;-86
2023/09/01 03:25:01;;;;;;;10.30;4.43;;;;;;;18.71;59.94;95467.03;5034178;28;20116;-85
2023/09/01 03:27:27;;;;;;;10.73;3.95;;;;;;;18.70;59.97;95477.00;5034661;28;20095;-85
2023/09/01 03:29:55;;;;;;;16.38;5.28;;;;;;;18.71;60.08;95478.56;5035340;28;20076;-80
2023/09/01 03:32:21;;;;;;;14.35;6.20;;;;;;;18.41;59.87;95448.06;5033950;28;20108;-79
2023/09/01 03:34:47;;;;;;;18.33;8.52;;;;;;;18.59;59.88;95474.97;5033708;28;20460;-79
2023/09/01 03:37:13;;;;;;;20.23;9.43;;;;;;;18.49;60.08;95474.13;5033408;28;20084;-78
2023/09/01 03:39:38;;;;;;;21.30;9.23;;;;;;;18.58;60.04;95481.44;5015275;28;20061;-79
2023/09/01 03:42:04;;;;;;;19.42;8.18;;;;;;;18.55;60.22;95474.75;5019322;28;20045;-79
2023/09/01 03:44:29;;;;;;;19.48;9.23;;;;;;;18.22;60.25;95426.13;5037790;28;20033;-80
2023/09/01 03:46:55;;;;;;;18.52;9.48;;;;;;;18.60;60.30;95482.69;5037109;28;20463;-79
2023/09/01 03:49:21;;;;;;;20.30;9.85;;;;;;;18.41;60.30;95461.50;5036814;28;20037;-79
2023/09/01 03:51:46;;;;;;;21.95;10.65;;;;;;;18.31;60.45;95461.03;5034774;28;20110;-78
2023/09/01 03:54:12;;;;;;;22.98;10.48;;;;;;;18.22;61.00;95473.66;5019237;28;20033;-79
2023/09/01 03:56:37;;;;;;;17.80;10.52;;;;;;;18.28;60.69;95483.13;5019107;28;20026;-80
2023/09/01 03:59:03;;;;;;;20.50;11.07;;;;;;;18.00;61.29;95458.47;5036880;28;20041;-79
2023/09/01 04:01:28;;;;;;;20.77;10.05;;;;;;;18.12;61.23;95475.53;5036289;28;20034;-78
2023/09/01 04:03:53;;;;;;;20.60;10.40;;;;;;;18.15;61.06;95476.00;5018625;28;20042;-78
2023/09/01 04:06:19;;;;;;;22.75;10.93;;;;;;;18.09;61.00;95460.03;5036639;28;20562;-79
2023/09/01 04:08:44;;;;;;;22.25;11.85;;;;;;;17.93;61.27;95463.47;5035939;28;20176;-79
2023/09/01 04:11:10;;;;;;;26.10;11.38;;;;;;;18.02;60.92;95467.75;5018500;28;20481;-78
2023/09/01 04:13:36;;;;;;;46.60;19.23;;;;;;;18.22;60.72;95501.28;5036209;28;20113;-78
2023/09/01 04:16:02;;;;;;;62.17;23.42;;;;;;;17.95;61.06;95501.53;5018440;28;20593;-78
2023/09/01 04:18:28;;;;;;;54.08;24.70;;;;;;;18.05;60.94;95512.78;5035660;28;20501;-79
2023/09/01 04:20:54;;;;;;;43.95;20.80;;;;;;;18.16;61.18;95507.13;5035948;28;20103;-79
2023/09/01 04:23:20;;;;;;;60.33;22.92;;;;;;;18.16;60.77;95496.38;5035361;28;20038;-79
2023/09/01 04:25:46;;;;;;;50.40;21.20;;;;;;;18.10;60.48;95509.13;5017853;28;20033;-79
2023/09/01 04:28:15;;;;;;;50.40;19.80;;;;;;;18.06;60.54;95500.16;5034311;28;20030;-78
2023/09/01 04:30:45;;;;;;;57.00;21.10;;;;;;;17.90;60.92;95483.69;5017803;28;20124;-79
2023/09/01 04:33:11;;;;;;;59.45;23.75;;;;;;;17.91;60.54;95469.19;5035445;28;20025;-79
2023/09/01 04:35:36;;;;;;;45.03;20.17;;;;;;;18.25;60.65;95507.91;5018385;28;20041;-79
2023/09/01 04:38:02;;;;;;;52.85;22.85;;;;;;;18.30;60.40;95508.56;5037206;28;20029;-78
2023/09/01 04:40:28;;;;;;;58.33;24.00;;;;;;;18.10;60.25;95468.88;5043868;28;20034;-85
2023/09/01 04:42:54;;;;;;;50.67;22.35;;;;;;;18.20;60.03;95479.31;5043567;28;20086;-86
2023/09/01 04:45:19;;;;;;;50.15;20.13;;;;;;;18.09;60.34;95472.66;5047143;28;20036;-85
2023/09/01 04:47:45;;;;;;;43.35;19.38;;;;;;;18.33;60.21;95505.22;5025669;28;20030;-86
2023/09/01 04:50:10;;;;;;;52.05;17.48;;;;;;;18.32;59.88;95511.69;5040546;28;20029;-79
2023/09/01 04:52:36;;;;;;;41.95;15.68;;;;;;;18.21;59.93;95498.91;5036831;28;20111;-79
2023/09/01 04:55:05;;;;;;;39.03;14.75;;;;;;;18.21;59.69;95483.59;5020033;28;20033;-79
2023/09/01 04:57:31;;;;;;;34.55;14.75;;;;;;;18.24;59.36;95474.09;5036113;28;20528;-79
2023/09/01 04:59:57;;;;;;;26.90;11.88;;;;;;;18.53;59.39;95530.69;5021814;28;20106;-80
2023/09/01 05:02:23;;;;;;;33.85;11.48;;;;;;;18.01;59.38;95460.81;5037175;28;20029;-79
2023/09/01 05:04:48;;;;;;;33.13;13.32;;;;;;;18.30;59.48;95516.63;5018685;28;20147;-79
2023/09/01 05:07:14;;;;;;;32.60;13.23;;;;;;;18.25;59.96;95515.94;5036442;28;20045;-80
2023/09/01 05:09:39;;;;;;;26.75;11.80;;;;;;;18.36;59.88;95552.94;5033198;28;20115;-79
2023/09/01 05:12:05;;;;;;;30.35;11.95;;;;;;;17.89;60.03;95500.09;5034530;28;20104;-79
2023/09/01 05:14:30;;;;;;;26.98;11.35;;;;;;;18.30;60.18;95551.53;5034940;28;20108;-80
2023/09/01 05:16:56;;;;;;;26.20;9.93;;;;;;;18.09;60.28;95531.72;5035812;28;20045;-79
2023/09/01 05:19:22;;;;;;;20.67;9.57;;;;;;;17.95;59.84;95496.16;5016732;28;20045;-79
2023/09/01 05:21:48;;;;;;;22.40;9.38;;;;;;;18.16;60.75;95556.19;5034970;28;20116;-79
2023/09/01 05:24:14;;;;;;;24.50;10.65;;;;;;;18.15;60.61;95548.47;5034711;28;20076;-80
2023/09/01 05:26:39;;;;;;;30.05;10.70;;;;;;;18.23;60.52;95548.50;5017249;28;20087;-81
2023/09/01 05:29:05;;;;;;;25.45;10.95;;;;;;;18.41;60.07;95571.59;5017042;28;20056;-79
2023/09/01 05:31:30;;;;;;;21.10;8.90;;;;;;;18.42;59.74;95545.53;5035956;28;20025;-79
2023/09/01 05:33:56;;;;;;;22.27;9.52;;;;;;;18.51;59.90;95562.44;5036249;28;20037;-79
2023/09/01 05:36:21;;;;;;;28.02;9.80;;;;;;;18.46;59.88;95562.59;5034060;28;20041;-79
2023/09/01 05:38:46;;;;;;;20.33;8.43;;;;;;;18.26;60.15;95526.38;5016049;28;20044;-79
2023/09/01 05:41:12;;;;;;;24.92;9.32;;;;;;;18.31;60.25;95542.34;5032611;28;20037;-78
2023/09/01 05:43:38;;;;;;;33.25;10.35;;;;;;;18.03;60.06;95496.19;5016281;28;20203;-79
2023/09/01 05:46:03;;;;;;;24.35;9.32;;;;;;;18.45;59.63;95543.00;5017061;28;20483;-79
2023/09/01 05:48:29;;;;;;;19.65;8.27;;;;;;;18.68;59.40;95564.41;5017210;28;20131;-79
2023/09/01 05:50:55;;;;;;;22.92;9.32;;;;;;;18.73;59.36;95559.66;5034451;28;20116;-79
2023/09/01 05:53:21;;;;;;;22.92;8.35;;;;;;;18.58;59.29;95532.47;5031578;28;20127;-79
2023/09/01 05:55:47;;;;;;;19.92;8.23;;;;;;;18.80;59.65;95556.50;5052282;28;20514;-80
2023/09/01 05:58:12;;;;;;;18.30;8.48;;;;;;;18.32;59.95;95486.75;5016205;28;20037;-79
2023/09/01 06:00:38;;;;;;;20.00;8.02;;;;;;;18.83;59.80;95553.19;5031394;28;20120;-79
2023/09/01 06:03:04;;;;;;;24.10;8.68;;;;;;;18.47;59.77;95510.44;5013918;28;20072;-80
2023/09/01 06:05:30;;;;;;;20.73;7.13;;;;;;;18.51;60.20;95524.84;5033333;28;20036;-79
2023/09/01 06:07:56;;;;;;;10.98;5.15;;;;;;;18.25;61.00;95492.59;5036416;28;20045;-79
2023/09/01 06:10:21;;;;;;;12.93;4.90;;;;;;;18.58;61.00;95543.19;5014533;28;20033;-88
2023/09/01 06:12:47;;;;;;;13.63;6.15;;;;;;;18.65;60.79;95549.69;5031744;28;20112;-82
2023/09/01 06:15:12;;;;;;;16.88;4.88;;;;;;;18.71;61.33;95564.53;5040408;28;20044;-86
2023/09/01 06:17:38;;;;;;;10.80;5.13;;;;;;;18.49;61.83;95551.22;5045977;28;20041;-88
2023/09/01 06:20:05;;;;;;;11.48;4.85;;;;;;;18.12;62.46;95520.34;5023157;28;20057;-81
2023/09/01 06:22:31;;;;;;;14.45;4.22;;;;;;;18.32;62.14;95549.28;5028729;28;20042;-80
2023/09/01 06:24:56;;;;;;;18.45;4.18;;;;;;;18.32;62.08;95535.06;5030234;28;20038;-80
2023/09/01 06:27:21;;;;;;;9.80;3.75;;;;;;;18.41;62.12;95560.84;5013221;28;20135;-79
2023/09/01 06:29:47;;;;;;;11.05;4.80;;;;;;;18.31;62.15;95542.34;5032875;28;20492;-79
2023/09/01 06:32:13;;;;;;;11.23;4.80;;;;;;;18.30;62.80;95548.03;5030076;28;20033;-80
2023/09/01 06:34:39;;;;;;;12.05;4.50;;;;;;;18.52;62.61;95574.78;5031556;28;20033;-79
2023/09/01 06:37:05;;;;;;;12.63;4.60;;;;;;;18.56;62.61;95578.44;5032465;28;20048;-79
2023/09/01 06:39:30;;;;;;;13.05;5.10;;;;;;;18.32;62.48;95527.81;5025916;28;20021;-81
2023/09/01 06:41:56;;;;;;;13.95;4.68;;;;;;;18.22;62.17;95521.97;5030012;28;20737;-80
2023/09/01 06:44:22;;;;;;;17.52;5.13;;;;;;;18.31;62.05;95528.16;5022296;28;20127;-80
2023/09/01 06:46:48;;;;;;;12.93;5.30;;;;;;;18.64;62.32;95574.97;5024942;28;20064;-79
2023/09/01 06:49:15;;;;;;;14.57;4.78;;;;;;;18.40;61.72;95518.97;5029852;28;20068;-79
2023/09/01 06:51:41;;;;;;;14.60;6.00;;;;;;;18.56;61.71;95534.63;5036751;28;20124;-82
2023/09/01 06:54:06;;;;;;;12.13;5.13;;;;;;;19.02;61.34;95575.13;5026817;28;20038;-79
2023/09/01 06:56:31;;;;;;;14.48;5.32;;;;;;;19.10;61.19;95589.69;5018625;28;20029;-80
2023/09/01 06:58:57;;;;;;;18.15;5.32;;;;;;;18.96;61.28;95559.50;5030651;28;20443;-79
2023/09/01 07:01:22;;;;;;;16.15;5.38;;;;;;;19.13;60.46;95562.19;5024956;28;20121;-79
2023/09/01 07:03:48;;;;;;;15.88;5.00;;;;;;;19.26;60.34;95551.25;5045055;28;20480;-79
2023/09/01 07:06:13;;;;;;;7.82;4.35;;;;;;;19.26;59.90;95548.56;5034439;28;20087;-79
2023/09/01 07:08:39;;;;;;;17.27;4.93;;;;;;;19.59;59.92;95593.78;5029992;28;20500;-80
2023/09/01 07:11:10;;;;;;;10.15;5.32;;;;;;;19.54;59.82;95597.41;5031463;28;20037;-79
2023/09/01 07:13:35;;;;;;;16.08;5.13;;;;;;;19.50;59.81;95580.34;5031108;28;20036;-80
2023/09/01 07:16:01;;;;;;;10.68;5.18;;;;;;;19.42;59.96;95564.19;5033089;28;20041;-79
2023/09/01 07:18:26;;;;;;;14.05;4.80;;;;;;;19.17;59.68;95526.25;5022140;28;20106;-79
2023/09/01 07:20:57;;;;;;;16.25;4.90;;;;;;;19.58;59.69;95579.53;5051771;28;20380;-81
2023/09/01 07:23:22;;;;;;;12.50;5.93;;;;;;;19.72;59.54;95581.22;5046501;28;20041;-80
2023/09/01 07:25:47;;;;;;;18.17;5.32;;;;;;;19.88;59.18;95585.78;5034309;28;20113;-80
2023/09/01 07:28:13;;;;;;;13.30;5.25;;;;;;;20.03;58.64;95579.84;5035518;28;20083;-81
2023/09/01 07:30:39;;;;;;;10.95;4.90;;;;;;;20.02;58.14;95567.50;5018541;28;20069;-84
2023/09/01 07:33:05;;;;;;;9.98;4.95;;;;;;;20.14;57.99;95561.41;5034430;28;20083;-85
2023/09/01 07:35:30;;;;;;;13.02;5.00;;;;;;;20.40;57.71;95590.94;5018654;28;20025;-83
2023/09/01 07:37:57;;;;;;;14.77;5.30;;;;;;;20.25;57.73;95562.63;5036841;28;20459;-84
2023/09/01 07:40:22;;;;;;;22.02;6.30;;;;;;;20.25;57.88;95568.03;5035716;28;20065;-84
2023/09/01 07:42:48;;;;;;;7.18;4.80;;;;;;;20.04;57.57;95541.06;5027482;28;20534;-84
2023/09/01 07:45:14;;;;;;;14.98;5.38;;;;;;;20.19;57.24;95547.78;5035678;28;20029;-83
2023/09/01 07:47:39;;;;;;;10.90;5.47;;;;;;;20.20;56.98;95540.50;5017749;28;20110;-84
2023/09/01 07:50:06;;;;;;;13.77;5.07;;;;;;;20.60;56.85;95586.69;5017732;28;20044;-83
2023/09/01 07:52:31;;;;;;;15.75;4.65;;;;;;;20.77;56.27;95592.78;5035629;28;20809;-84
2023/09/01 07:54:57;;;;;;;13.10;4.93;;;;;;;20.94;55.96;95593.78;5017931;28;20041;-84
2023/09/01 07:57:22;;;;;;;13.43;4.70;;;;;;;20.85;55.82;95582.25;5038874;28;20041;-84
2023/09/01 07:59:47;;;;;;;13.55;5.10;;;;;;;20.75;55.78;95561.91;5035694;28;20052;-83
2023/09/01 08:02:13;;;;;;;11.43;4.53;;;;;;;20.71;55.74;95537.50;5015836;28;20030;-83
2023/09/01 08:04:38;;;;;;;13.90;5.15;;;;;;;21.03;55.30;95589.09;5016491;28;20047;-84
2023/09/01 08:07:04;;;;;;;10.80;4.90;;;;;;;21.09;54.60;95588.56;5016062;28;20129;-84
2023/09/01 08:09:29;;;;;;;11.90;4.82;;;;;;;20.93;54.24;95549.06;5027397;28;20033;-85
2023/09/01 08:11:55;;;;;;;7.63;4.80;;;;;;;21.22;53.23;95580.56;5014978;28;20110;-85
2023/09/01 08:14:21;;;;;;;9.05;4.55;;;;;;;20.62;52.78;95496.34;5034381;28;20025;-85
2023/09/01 08:16:47;;;;;;;7.82;5.80;;;;;;;20.78;52.79;95524.28;5038027;28;20030;-85
2023/09/01 08:19:13;;;;;;;9.48;4.78;;;;;;;21.32;52.66;95586.34;5022161;28;20132;-85
2023/09/01 08:21:39;;;;;;;15.20;6.50;;;;;;;21.19;52.72;95565.84;5022140;28;20531;-85
2023/09/01 08:24:05;;;;;;;11.55;5.90;;;;;;;21.39;52.15;95575.00;5034147;28;20029;-85
2023/09/01 08:26:33;;;;;;;11.23;5.00;;;;;;;21.34;52.62;95569.81;5036627;28;20048;-85
2023/09/01 08:28:59;;;;;;;10.75;5.93;;;;;;;21.36;51.84;95552.16;5056211;28;20106;-79
2023/09/01 08:31:24;;;;;;;11.68;5.72;;;;;;;21.53;50.69;95570.88;5026674;28;20488;-79
2023/09/01 08:33:50;;;;;;;9.48;5.65;;;;;;;21.67;50.88;95567.09;5035327;28;20040;-79
2023/09/01 08:36:15;;;;;;;10.25;6.47;;;;;;;21.54;50.20;95556.28;5033212;28;20079;-79
2023/09/01 08:38:41;;;;;;;7.78;5.88;;;;;;;21.79;49.86;95577.94;5034846;28;20029;-80
2023/09/01 08:41:06;;;;;;;8.55;5.78;;;;;;;21.40;50.24;95512.63;5020114;28;20098;-81
2023/09/01 08:43:40;;;;;;;11.30;6.43;;;;;;;21.56;50.07;95512.78;5033904;28;20041;-81
2023/09/01 08:46:07;;;;;;;9.15;5.97;;;;;;;21.80;49.73;95556.00;5033648;28;20061;-81
2023/09/01 08:48:33;;;;;;;8.80;5.43;;;;;;;21.83;50.08;95546.44;5046212;28;20072;-82
2023/09/01 08:50:58;;;;;;;7.00;4.88;;;;;;;21.83;49.34;95541.81;5040087;28;20080;-80
2023/09/01 08:53:25;;;;;;;14.25;4.65;;;;;;;21.87;49.00;95550.03;5015612;28;20095;-80
2023/09/01 08:55:52;;;;;;;10.82;5.65;;;;;;;21.92;49.41;95560.63;5043653;28;20561;-81
2023/09/01 08:58:17;;;;;;;10.57;4.90;;;;;;;21.87;49.28;95539.25;5041210;28;20053;-81
2023/09/01 09:00:44;;;;;;;9.32;5.57;;;;;;;22.17;48.93;95564.94;5034917;28;20123;-80
2023/09/01 09:03:13;;;;;;;9.02;5.32;;;;;;;22.13;49.32;95547.81;5017432;28;20135;-80
2023/09/01 09:05:39;;;;;;;7.65;4.90;;;;;;;22.08;49.08;95539.97;5031079;28;20029;-79
2023/09/01 09:08:06;;;;;;;8.65;5.20;;;;;;;22.16;48.96;95546.38;5045700;28;20040;-79
2023/09/01 09:10:37;;;;;;;9.73;5.18;;;;;;;22.27;48.94;95547.50;5043771;28;20096;-79
2023/09/01 09:13:28;;;;;;;8.20;5.97;;;;;;;22.55;49.23;95556.47;5032804;28;20103;-80
2023/09/01 09:16:17;;;;;;;11.68;5.82;;;;;;;22.66;48.01;95554.88;5033179;28;20037;-81
2023/09/01 09:18:45;;;;;;;10.57;5.05;;;;;;;22.66;47.29;95548.69;5018917;28;20077;-80
2023/09/01 09:21:31;;;;;;;10.23;6.10;;;;;;;22.71;46.19;95548.47;5033063;28;20033;-80
2023/09/01 09:23:58;;;;;;;11.40;4.68;;;;;;;22.79;45.86;95544.06;5037301;28;20025;-79
2023/09/01 09:26:25;;;;;;;9.70;5.80;;;;;;;22.85;46.14;95534.59;5041399;28;20033;-81
2023/09/01 09:28:51;;;;;;;8.90;5.10;;;;;;;22.98;46.62;95536.91;5035573;28;20025;-79
2023/09/01 09:31:16;;;;;;;8.10;5.47;;;;;;;22.70;46.76;95493.59;5046520;28;20405;-81
2023/09/01 09:33:43;;;;;;;9.18;4.80;;;;;;;22.89;46.49;95525.44;5014011;28;20128;-80
2023/09/01 09:36:08;;;;;;;12.30;5.00;;;;;;;22.88;46.49;95532.00;5010862;28;20129;-84
2023/09/01 09:38:47;;;;;;;12.75;5.18;;;;;;;23.08;46.08;95546.47;5028603;28;20123;-85
2023/09/01 09:41:13;;;;;;;8.00;4.47;;;;;;;23.03;45.89;95515.03;5048112;28;20128;-79
2023/09/01 09:43:43;;;;;;;6.68;4.30;;;;;;;22.88;45.58;95467.09;5014888;28;20080;-79
2023/09/01 09:46:09;;;;;;;10.37;4.83;;;;;;;23.28;45.33;95531.94;5031568;28;20054;-79
2023/09/01 09:48:36;;;;;;;14.07;5.55;;;;;;;23.13;45.73;95485.91;5031089;28;20299;-79
2023/09/01 09:51:07;;;;;;;8.90;5.50;;;;;;;23.56;45.17;95528.47;5015943;28;20388;-85
2023/09/01 09:53:34;;;;;;;9.30;4.07;;;;;;;23.57;44.37;95538.16;5032317;28;20404;-86
2023/09/01 09:56:14;;;;;;;11.48;4.90;;;;;;;23.51;44.56;95517.88;5015108;28;20128;-86
2023/09/01 09:58:40;;;;;;;13.50;5.25;;;;;;;23.96;43.74;95523.66;5015040;28;20103;-86
2023/09/01 10:01:13;;;;;;;9.90;4.88;;;;;;;24.65;42.39;95513.25;5016245;28;20084;-86
2023/09/01 10:03:40;;;;;;;7.03;4.55;;;;;;;25.70;40.05;95527.41;5034286;28;20427;-85
2023/09/01 10:06:07;;;;;;;7.32;4.68;;;;;;;26.46;38.57;95495.66;5016362;28;20037;-86
2023/09/01 10:08:34;;;;;;;9.85;4.57;;;;;;;27.16;36.69;95528.44;5016226;28;20033;-85
2023/09/01 10:11:01;;;;;;;8.75;4.65;;;;;;;27.84;35.20;95497.31;5033862;28;20474;-85
2023/09/01 10:13:27;;;;;;;7.30;4.72;;;;;;;28.51;34.03;95504.44;5033918;28;20428;-86
2023/09/01 10:15:54;;;;;;;6.60;4.43;;;;;;;29.13;32.76;95486.06;5015556;28;20041;-86
2023/09/01 10:18:21;;;;;;;9.68;4.40;;;;;;;29.86;31.77;95503.81;5032712;28;20061;-85
2023/09/01 10:20:46;;;;;;;13.25;4.03;;;;;;;30.05;31.65;95515.59;5013662;28;20107;-86
2023/09/01 10:23:13;;;;;;;8.70;4.05;;;;;;;30.67;30.95;95510.44;5029807;28;20131;-85
2023/09/01 10:25:39;;;;;;;7.95;3.92;;;;;;;31.00;30.52;95498.22;5034659;28;20109;-85
2023/09/01 10:28:04;;;;;;;13.02;4.40;;;;;;;31.64;29.49;95517.97;5033790;28;20071;-86
2023/09/01 10:30:31;;;;;;;6.95;3.65;;;;;;;32.20;29.41;95527.75;5014720;28;20223;-84
2023/09/01 10:33:07;;;;;;;5.80;3.92;;;;;;;32.25;28.11;95520.28;5017789;28;20179;-85
2023/09/01 10:35:43;;;;;;;6.13;4.00;;;;;;;32.14;28.70;95510.16;5050862;28;20040;-85
2023/09/01 10:38:21;;;;;;;8.80;3.30;;;;;;;32.49;28.02;95509.09;5034778;28;20617;-85
2023/09/01 10:40:53;;;;;;;6.60;4.15;;;;;;;32.08;28.54;95516.47;5052056;28;20040;-85
2023/09/01 10:43:37;;;;;;;9.02;3.72;;;;;;;32.27;28.42;95507.72;5034758;28;20032;-85
2023/09/01 10:46:14;;;;;;;5.00;3.55;;;;;;;32.33;27.43;95513.56;5053098;28;20036;-86
2023/09/01 10:48:50;;;;;;;7.10;3.63;;;;;;;32.30;27.69;95492.41;5034854;28;20059;-86
2023/09/01 10:51:33;;;;;;;7.25;3.75;;;;;;;32.61;27.55;95485.06;5051787;28;20029;-85
2023/09/01 10:54:00;;;;;;;7.93;3.33;;;;;;;32.73;27.25;95493.56;5052841;28;20344;-86
2023/09/01 10:56:33;;;;;;;5.40;3.33;;;;;;;32.69;27.17;95489.31;5051451;28;20032;-87
2023/09/01 10:58:59;;;;;;;15.18;4.10;;;;;;;32.13;27.08;95464.69;5034978;28;20240;-79
2023/09/01 11:01:29;;;;;;;6.90;3.50;;;;;;;32.39;26.92;95492.72;5052591;28;20116;-79
2023/09/01 11:03:56;;;;;;;9.07;3.47;;;;;;;31.48;27.59;95497.66;5051137;28;20049;-79
2023/09/01 11:06:22;;;;;;;7.03;3.72;;;;;;;31.50;27.53;95448.72;5035001;28;20033;-79
2023/09/01 11:09:00;;;;;;;6.47;2.97;;;;;;;31.78;27.71;95473.22;5053099;28;20040;-79
2023/09/01 11:11:27;;;;;;;6.53;4.00;;;;;;;31.41;28.02;95469.13;5032044;28;20067;-79
2023/09/01 11:13:54;;;;;;;7.00;3.38;;;;;;;31.02;28.31;95430.94;5031058;28;20033;-80
2023/09/01 11:16:19;;;;;;;6.32;3.90;;;;;;;31.20;28.07;95446.53;5019136;28;20032;-79
2023/09/01 11:18:46;;;;;;;4.60;3.10;;;;;;;31.53;27.84;95456.88;5033678;28;20156;-80
2023/09/01 11:21:11;;;;;;;6.60;3.30;;;;;;;32.13;26.64;95469.38;5051425;28;20041;-78
2023/09/01 11:23:38;;;;;;;6.72;3.50;;;;;;;32.35;26.99;95470.00;5049882;28;20090;-80
2023/09/01 11:26:04;;;;;;;8.90;3.33;;;;;;;32.55;26.75;95452.56;5049563;28;20048;-79